sensor_id;sensor_type;location;lat;lon;timestamp;temperature;humidity
11221;DHT22;8517;53.546;10.104;2023-05-21T00:00:00;15.80;99.90
11221;DHT22;8517;53.546;10.104;2023-05-21T00:02:35;15.70;99.90
11221;DHT22;8517;53.546;10.104;2023-05-21T00:05:02;15.70;99.90
11221;DHT22;8517;53.546;10.104;2023-05-21T00:07:30;15.70;99.90
11221;DHT22;8517;53.546;10.104;2023-05-21T00:09:58;15.60;99.90
11221;DHT22;8517;53.546;10.104;2023-05-21T00:12:25;15.60;99.90
11221;DHT22;8517;53.546;10.104;2023-05-21T00:14:51;15.60;99.90
11221;DHT22;8517;53.546;10.104;2023-05-21T00:17:18;15.60;99.90
11221;DHT22;8517;53.546;10.104;2023-05-21T00:19:45;15.50;99.90
11221;DHT22;8517;53.546;10.104;2023-05-21T00:22:12;15.50;99.90
11221;DHT22;8517;53.546;10.104;2023-05-21T00:24:41;15.50;99.90
11221;DHT22;8517;53.546;10.104;2023-05-21T00:27:09;15.50;99.90
11221;DHT22;8517;53.546;10.104;2023-05-21T00:29:36;15.50;99.90
11221;DHT22;8517;53.546;10.104;2023-05-21T00:32:04;15.40;99.90
11221;DHT22;8517;53.546;10.104;2023-05-21T00:34:31;15.40;99.90
11221;DHT22;8517;53.546;10.104;2023-05-21T00:36:58;15.40;99.90
11221;DHT22;8517;53.546;10.104;2023-05-21T00:39:27;15.40;99.90
11221;DHT22;8517;53.546;10.104;2023-05-21T00:41:55;15.30;99.90
11221;DHT22;8517;53.546;10.104;2023-05-21T00:44:22;15.30;99.90
11221;DHT22;8517;53.546;10.104;2023-05-21T00:46:49;15.30;99.90
11221;DHT22;8517;53.546;10.104;2023-05-21T00:49:18;15.20;99.90
11221;DHT22;8517;53.546;10.104;2023-05-21T00:51:47;15.20;99.90
11221;DHT22;8517;53.546;10.104;2023-05-21T00:54:13;15.20;99.90
11221;DHT22;8517;53.546;10.104;2023-05-21T00:56:40;15.20;99.90
11221;DHT22;8517;53.546;10.104;2023-05-21T00:59:09;15.20;99.90
11221;DHT22;8517;53.546;10.104;2023-05-21T01:01:36;15.20;99.90
11221;DHT22;8517;53.546;10.104;2023-05-21T01:04:03;15.10;99.90
11221;DHT22;8517;53.546;10.104;2023-05-21T01:06:30;15.20;99.90
11221;DHT22;8517;53.546;10.104;2023-05-21T01:08:59;15.20;99.90
11221;DHT22;8517;53.546;10.104;2023-05-21T01:11:35;15.10;99.90
11221;DHT22;8517;53.546;10.104;2023-05-21T01:14:04;15.10;99.90
11221;DHT22;8517;53.546;10.104;2023-05-21T01:16:36;15.10;99.90
11221;DHT22;8517;53.546;10.104;2023-05-21T01:19:04;15.10;99.90
11221;DHT22;8517;53.546;10.104;2023-05-21T01:21:32;15.10;99.90
11221;DHT22;8517;53.546;10.104;2023-05-21T01:24:03;15.10;99.90
11221;DHT22;8517;53.546;10.104;2023-05-21T01:26:32;15.00;99.90
11221;DHT22;8517;53.546;10.104;2023-05-21T01:29:03;15.00;99.90
11221;DHT22;8517;53.546;10.104;2023-05-21T01:31:36;15.00;99.90
11221;DHT22;8517;53.546;10.104;2023-05-21T01:34:08;15.00;99.90
11221;DHT22;8517;53.546;10.104;2023-05-21T01:36:41;14.90;99.90
11221;DHT22;8517;53.546;10.104;2023-05-21T01:39:15;14.90;99.90
11221;DHT22;8517;53.546;10.104;2023-05-21T01:41:45;14.90;99.90
11221;DHT22;8517;53.546;10.104;2023-05-21T01:44:15;14.90;99.90
11221;DHT22;8517;53.546;10.104;2023-05-21T01:46:43;14.90;99.90
11221;DHT22;8517;53.546;10.104;2023-05-21T01:49:10;14.90;99.90
11221;DHT22;8517;53.546;10.104;2023-05-21T01:52:46;14.90;99.90
11221;DHT22;8517;53.546;10.104;2023-05-21T01:55:06;14.90;99.90
11221;DHT22;8517;53.546;10.104;2023-05-21T01:57:33;14.90;99.90
11221;DHT22;8517;53.546;10.104;2023-05-21T02:00:00;14.90;99.90
11221;DHT22;8517;53.546;10.104;2023-05-21T02:02:27;14.90;99.90
11221;DHT22;8517;53.546;10.104;2023-05-21T02:04:54;14.90;99.90
11221;DHT22;8517;53.546;10.104;2023-05-21T02:07:20;14.90;99.90
11221;DHT22;8517;53.546;10.104;2023-05-21T02:09:49;14.90;99.90
11221;DHT22;8517;53.546;10.104;2023-05-21T02:12:17;14.80;99.90
11221;DHT22;8517;53.546;10.104;2023-05-21T02:14:43;14.80;99.90
11221;DHT22;8517;53.546;10.104;2023-05-21T02:17:13;14.80;99.90
11221;DHT22;8517;53.546;10.104;2023-05-21T02:19:40;14.80;99.90
11221;DHT22;8517;53.546;10.104;2023-05-21T02:22:09;14.80;99.90
11221;DHT22;8517;53.546;10.104;2023-05-21T02:24:36;14.80;99.90
11221;DHT22;8517;53.546;10.104;2023-05-21T02:27:03;14.80;99.90
11221;DHT22;8517;53.546;10.104;2023-05-21T02:29:32;14.70;99.90
11221;DHT22;8517;53.546;10.104;2023-05-21T02:32:18;14.80;99.90
11221;DHT22;8517;53.546;10.104;2023-05-21T02:34:45;14.70;99.90
11221;DHT22;8517;53.546;10.104;2023-05-21T02:37:11;14.70;99.90
11221;DHT22;8517;53.546;10.104;2023-05-21T02:39:38;14.70;99.90
11221;DHT22;8517;53.546;10.104;2023-05-21T02:42:05;14.70;99.90
11221;DHT22;8517;53.546;10.104;2023-05-21T02:44:33;14.70;99.90
11221;DHT22;8517;53.546;10.104;2023-05-21T02:47:00;14.70;99.90
11221;DHT22;8517;53.546;10.104;2023-05-21T02:49:27;14.70;99.90
11221;DHT22;8517;53.546;10.104;2023-05-21T02:51:53;14.60;99.90
11221;DHT22;8517;53.546;10.104;2023-05-21T02:54:20;14.60;99.90
11221;DHT22;8517;53.546;10.104;2023-05-21T02:56:47;14.60;99.90
11221;DHT22;8517;53.546;10.104;2023-05-21T02:59:14;14.60;99.90
11221;DHT22;8517;53.546;10.104;2023-05-21T03:01:42;14.50;99.90
11221;DHT22;8517;53.546;10.104;2023-05-21T03:04:09;14.50;99.90
11221;DHT22;8517;53.546;10.104;2023-05-21T03:06:37;14.50;99.90
11221;DHT22;8517;53.546;10.104;2023-05-21T03:09:04;14.40;99.90
11221;DHT22;8517;53.546;10.104;2023-05-21T03:11:31;14.40;99.90
11221;DHT22;8517;53.546;10.104;2023-05-21T03:13:58;14.40;99.90
11221;DHT22;8517;53.546;10.104;2023-05-21T03:16:24;14.40;99.90
11221;DHT22;8517;53.546;10.104;2023-05-21T03:18:52;14.40;99.90
11221;DHT22;8517;53.546;10.104;2023-05-21T03:21:20;14.40;99.90
11221;DHT22;8517;53.546;10.104;2023-05-21T03:23:47;14.30;99.90
11221;DHT22;8517;53.546;10.104;2023-05-21T03:26:14;14.30;99.90
11221;DHT22;8517;53.546;10.104;2023-05-21T03:28:41;14.30;99.90
11221;DHT22;8517;53.546;10.104;2023-05-21T03:31:07;14.30;99.90
11221;DHT22;8517;53.546;10.104;2023-05-21T03:33:34;14.30;99.90
11221;DHT22;8517;53.546;10.104;2023-05-21T03:36:03;14.30;99.90
11221;DHT22;8517;53.546;10.104;2023-05-21T03:38:30;14.30;99.90
11221;DHT22;8517;53.546;10.104;2023-05-21T03:40:57;14.30;99.90
11221;DHT22;8517;53.546;10.104;2023-05-21T03:43:23;14.30;99.90
11221;DHT22;8517;53.546;10.104;2023-05-21T03:45:50;14.30;99.90
11221;DHT22;8517;53.546;10.104;2023-05-21T03:48:17;14.30;99.90
11221;DHT22;8517;53.546;10.104;2023-05-21T03:50:44;14.30;99.90
11221;DHT22;8517;53.546;10.104;2023-05-21T03:53:12;14.30;99.90
11221;DHT22;8517;53.546;10.104;2023-05-21T03:55:39;14.30;99.90
11221;DHT22;8517;53.546;10.104;2023-05-21T03:58:06;14.40;99.90
11221;DHT22;8517;53.546;10.104;2023-05-21T04:00:34;14.30;99.90
11221;DHT22;8517;53.546;10.104;2023-05-21T04:03:02;14.30;99.90
11221;DHT22;8517;53.546;10.104;2023-05-21T04:05:29;14.30;99.90
11221;DHT22;8517;53.546;10.104;2023-05-21T04:07:55;14.40;99.90
11221;DHT22;8517;53.546;10.104;2023-05-21T04:10:27;14.40;99.90
11221;DHT22;8517;53.546;10.104;2023-05-21T04:12:54;14.50;99.90
11221;DHT22;8517;53.546;10.104;2023-05-21T04:15:21;14.50;99.90
11221;DHT22;8517;53.546;10.104;2023-05-21T04:17:48;14.50;99.90
11221;DHT22;8517;53.546;10.104;2023-05-21T04:20:16;14.50;99.90
11221;DHT22;8517;53.546;10.104;2023-05-21T04:22:43;14.60;99.90
11221;DHT22;8517;53.546;10.104;2023-05-21T04:25:10;14.60;99.90
11221;DHT22;8517;53.546;10.104;2023-05-21T04:27:38;14.70;99.90
11221;DHT22;8517;53.546;10.104;2023-05-21T04:30:07;14.80;99.90
11221;DHT22;8517;53.546;10.104;2023-05-21T04:32:35;14.80;99.90
11221;DHT22;8517;53.546;10.104;2023-05-21T04:35:03;14.80;99.90
11221;DHT22;8517;53.546;10.104;2023-05-21T04:37:30;14.90;99.90
11221;DHT22;8517;53.546;10.104;2023-05-21T04:39:59;15.00;99.90
11221;DHT22;8517;53.546;10.104;2023-05-21T04:42:27;15.10;99.90
11221;DHT22;8517;53.546;10.104;2023-05-21T04:44:55;15.20;99.90
11221;DHT22;8517;53.546;10.104;2023-05-21T04:47:23;15.20;99.90
11221;DHT22;8517;53.546;10.104;2023-05-21T04:49:50;15.30;99.90
11221;DHT22;8517;53.546;10.104;2023-05-21T04:52:17;15.40;99.90
11221;DHT22;8517;53.546;10.104;2023-05-21T04:54:44;15.50;99.90
11221;DHT22;8517;53.546;10.104;2023-05-21T04:57:12;15.60;99.90
11221;DHT22;8517;53.546;10.104;2023-05-21T04:59:39;15.60;99.90
11221;DHT22;8517;53.546;10.104;2023-05-21T05:02:09;15.60;99.90
11221;DHT22;8517;53.546;10.104;2023-05-21T05:04:36;15.70;99.90
11221;DHT22;8517;53.546;10.104;2023-05-21T05:07:03;15.70;99.90
11221;DHT22;8517;53.546;10.104;2023-05-21T05:09:30;15.80;99.90
11221;DHT22;8517;53.546;10.104;2023-05-21T05:11:56;15.90;99.90
11221;DHT22;8517;53.546;10.104;2023-05-21T05:14:23;15.90;99.90
11221;DHT22;8517;53.546;10.104;2023-05-21T05:16:50;16.00;99.90
11221;DHT22;8517;53.546;10.104;2023-05-21T05:19:20;16.10;99.90
11221;DHT22;8517;53.546;10.104;2023-05-21T05:21:46;16.10;99.90
11221;DHT22;8517;53.546;10.104;2023-05-21T05:24:13;16.20;99.90
11221;DHT22;8517;53.546;10.104;2023-05-21T05:26:40;16.20;99.90
11221;DHT22;8517;53.546;10.104;2023-05-21T05:29:07;16.30;99.90
11221;DHT22;8517;53.546;10.104;2023-05-21T05:31:34;16.30;99.90
11221;DHT22;8517;53.546;10.104;2023-05-21T05:34:01;16.30;99.90
11221;DHT22;8517;53.546;10.104;2023-05-21T05:36:29;16.30;99.90
11221;DHT22;8517;53.546;10.104;2023-05-21T05:38:56;16.30;99.90
11221;DHT22;8517;53.546;10.104;2023-05-21T05:41:23;16.40;99.90
11221;DHT22;8517;53.546;10.104;2023-05-21T05:43:51;16.40;99.90
11221;DHT22;8517;53.546;10.104;2023-05-21T05:46:17;16.40;99.90
11221;DHT22;8517;53.546;10.104;2023-05-21T05:48:44;16.60;99.90
11221;DHT22;8517;53.546;10.104;2023-05-21T05:51:11;16.60;99.90
11221;DHT22;8517;53.546;10.104;2023-05-21T05:53:41;16.70;99.90
11221;DHT22;8517;53.546;10.104;2023-05-21T05:56:07;16.90;99.90
11221;DHT22;8517;53.546;10.104;2023-05-21T05:58:34;17.00;99.90
11221;DHT22;8517;53.546;10.104;2023-05-21T06:01:01;17.20;99.90
11221;DHT22;8517;53.546;10.104;2023-05-21T06:03:28;17.40;99.90
11221;DHT22;8517;53.546;10.104;2023-05-21T06:05:55;17.60;99.90
11221;DHT22;8517;53.546;10.104;2023-05-21T06:08:22;17.80;99.90
11221;DHT22;8517;53.546;10.104;2023-05-21T06:10:50;18.10;99.90
11221;DHT22;8517;53.546;10.104;2023-05-21T06:13:17;18.30;99.90
11221;DHT22;8517;53.546;10.104;2023-05-21T06:15:44;18.70;99.90
11221;DHT22;8517;53.546;10.104;2023-05-21T06:18:10;19.00;99.90
11221;DHT22;8517;53.546;10.104;2023-05-21T06:20:37;19.30;99.90
11221;DHT22;8517;53.546;10.104;2023-05-21T06:23:04;19.60;99.90
11221;DHT22;8517;53.546;10.104;2023-05-21T06:25:44;19.90;99.90
11221;DHT22;8517;53.546;10.104;2023-05-21T06:28:12;20.10;99.90
11221;DHT22;8517;53.546;10.104;2023-05-21T06:30:40;20.30;99.90
11221;DHT22;8517;53.546;10.104;2023-05-21T06:33:06;20.60;99.90
11221;DHT22;8517;53.546;10.104;2023-05-21T06:35:33;20.70;99.90
11221;DHT22;8517;53.546;10.104;2023-05-21T06:38:01;20.90;99.90
11221;DHT22;8517;53.546;10.104;2023-05-21T06:40:28;21.10;99.90
11221;DHT22;8517;53.546;10.104;2023-05-21T06:42:55;21.10;99.90
11221;DHT22;8517;53.546;10.104;2023-05-21T06:45:28;21.10;99.90
11221;DHT22;8517;53.546;10.104;2023-05-21T06:48:18;21.10;99.90
11221;DHT22;8517;53.546;10.104;2023-05-21T06:50:45;21.00;99.90
11221;DHT22;8517;53.546;10.104;2023-05-21T06:53:15;20.90;99.90
11221;DHT22;8517;53.546;10.104;2023-05-21T06:55:42;20.80;99.90
11221;DHT22;8517;53.546;10.104;2023-05-21T06:58:11;20.70;99.90
11221;DHT22;8517;53.546;10.104;2023-05-21T07:00:39;20.70;99.90
11221;DHT22;8517;53.546;10.104;2023-05-21T07:03:06;20.60;99.90
11221;DHT22;8517;53.546;10.104;2023-05-21T07:05:33;20.60;99.90
11221;DHT22;8517;53.546;10.104;2023-05-21T07:08:00;20.50;99.90
11221;DHT22;8517;53.546;10.104;2023-05-21T07:10:27;20.50;99.90
11221;DHT22;8517;53.546;10.104;2023-05-21T07:12:53;20.60;99.90
11221;DHT22;8517;53.546;10.104;2023-05-21T07:15:20;20.50;99.90
11221;DHT22;8517;53.546;10.104;2023-05-21T07:17:48;20.50;99.90
11221;DHT22;8517;53.546;10.104;2023-05-21T07:20:22;20.50;99.90
11221;DHT22;8517;53.546;10.104;2023-05-21T07:22:48;20.60;99.90
11221;DHT22;8517;53.546;10.104;2023-05-21T07:25:15;20.60;99.90
11221;DHT22;8517;53.546;10.104;2023-05-21T07:27:42;20.60;99.90
11221;DHT22;8517;53.546;10.104;2023-05-21T07:30:10;20.70;99.90
11221;DHT22;8517;53.546;10.104;2023-05-21T07:32:36;20.80;99.90
11221;DHT22;8517;53.546;10.104;2023-05-21T07:35:05;20.80;99.90
11221;DHT22;8517;53.546;10.104;2023-05-21T07:37:32;21.00;99.90
11221;DHT22;8517;53.546;10.104;2023-05-21T07:39:59;21.00;99.90
11221;DHT22;8517;53.546;10.104;2023-05-21T07:42:26;21.20;99.90
11221;DHT22;8517;53.546;10.104;2023-05-21T07:44:53;21.30;99.90
11221;DHT22;8517;53.546;10.104;2023-05-21T07:47:20;21.40;99.90
11221;DHT22;8517;53.546;10.104;2023-05-21T07:49:47;21.60;99.90
11221;DHT22;8517;53.546;10.104;2023-05-21T07:52:16;21.70;99.90
11221;DHT22;8517;53.546;10.104;2023-05-21T07:54:42;21.80;99.90
11221;DHT22;8517;53.546;10.104;2023-05-21T07:57:09;22.00;99.90
11221;DHT22;8517;53.546;10.104;2023-05-21T07:59:36;22.10;99.90
11221;DHT22;8517;53.546;10.104;2023-05-21T08:02:04;22.30;99.90
11221;DHT22;8517;53.546;10.104;2023-05-21T08:04:32;22.40;99.90
11221;DHT22;8517;53.546;10.104;2023-05-21T08:06:58;22.50;99.90
11221;DHT22;8517;53.546;10.104;2023-05-21T08:09:27;22.60;99.90
11221;DHT22;8517;53.546;10.104;2023-05-21T08:11:53;22.60;99.90
11221;DHT22;8517;53.546;10.104;2023-05-21T08:14:20;22.70;99.90
11221;DHT22;8517;53.546;10.104;2023-05-21T08:16:47;22.80;99.90
11221;DHT22;8517;53.546;10.104;2023-05-21T08:19:14;22.80;99.90
11221;DHT22;8517;53.546;10.104;2023-05-21T08:21:40;22.80;99.90
11221;DHT22;8517;53.546;10.104;2023-05-21T08:24:07;22.80;99.90
11221;DHT22;8517;53.546;10.104;2023-05-21T08:26:35;22.80;99.90
11221;DHT22;8517;53.546;10.104;2023-05-21T08:29:02;22.80;99.90
11221;DHT22;8517;53.546;10.104;2023-05-21T08:31:29;22.80;99.90
11221;DHT22;8517;53.546;10.104;2023-05-21T08:33:56;22.80;99.90
11221;DHT22;8517;53.546;10.104;2023-05-21T08:36:23;22.80;99.90
11221;DHT22;8517;53.546;10.104;2023-05-21T08:38:50;22.90;99.90
11221;DHT22;8517;53.546;10.104;2023-05-21T08:41:17;22.90;99.90
11221;DHT22;8517;53.546;10.104;2023-05-21T08:43:53;23.00;99.90
11221;DHT22;8517;53.546;10.104;2023-05-21T08:46:22;23.00;99.90
11221;DHT22;8517;53.546;10.104;2023-05-21T08:48:50;23.00;99.90
11221;DHT22;8517;53.546;10.104;2023-05-21T08:51:20;23.00;99.90
11221;DHT22;8517;53.546;10.104;2023-05-21T08:53:47;23.00;99.90
11221;DHT22;8517;53.546;10.104;2023-05-21T08:56:15;22.90;99.90
11221;DHT22;8517;53.546;10.104;2023-05-21T08:58:44;22.90;99.90
11221;DHT22;8517;53.546;10.104;2023-05-21T09:01:13;22.90;99.90
11221;DHT22;8517;53.546;10.104;2023-05-21T09:03:44;22.90;99.90
11221;DHT22;8517;53.546;10.104;2023-05-21T09:06:12;22.80;99.90
11221;DHT22;8517;53.546;10.104;2023-05-21T09:08:42;22.80;99.90
11221;DHT22;8517;53.546;10.104;2023-05-21T09:11:10;22.80;99.90
11221;DHT22;8517;53.546;10.104;2023-05-21T09:13:37;22.80;99.90
11221;DHT22;8517;53.546;10.104;2023-05-21T09:16:06;22.80;99.90
11221;DHT22;8517;53.546;10.104;2023-05-21T09:18:35;22.80;99.90
11221;DHT22;8517;53.546;10.104;2023-05-21T09:21:22;22.90;99.90
11221;DHT22;8517;53.546;10.104;2023-05-21T09:23:53;22.90;99.90
11221;DHT22;8517;53.546;10.104;2023-05-21T09:26:20;22.90;99.90
11221;DHT22;8517;53.546;10.104;2023-05-21T09:28:47;22.90;99.90
11221;DHT22;8517;53.546;10.104;2023-05-21T09:31:14;23.00;99.90
11221;DHT22;8517;53.546;10.104;2023-05-21T09:33:46;23.00;99.90
11221;DHT22;8517;53.546;10.104;2023-05-21T09:36:13;23.00;99.90
11221;DHT22;8517;53.546;10.104;2023-05-21T09:38:40;23.10;99.90
11221;DHT22;8517;53.546;10.104;2023-05-21T09:41:06;23.10;99.90
11221;DHT22;8517;53.546;10.104;2023-05-21T09:43:33;23.20;99.90
11221;DHT22;8517;53.546;10.104;2023-05-21T09:46:02;23.20;99.90
11221;DHT22;8517;53.546;10.104;2023-05-21T09:48:37;23.30;99.90
11221;DHT22;8517;53.546;10.104;2023-05-21T09:51:08;23.40;99.90
11221;DHT22;8517;53.546;10.104;2023-05-21T09:53:35;23.50;99.90
11221;DHT22;8517;53.546;10.104;2023-05-21T09:56:25;23.60;99.90
11221;DHT22;8517;53.546;10.104;2023-05-21T09:58:54;23.70;99.90
11221;DHT22;8517;53.546;10.104;2023-05-21T10:01:22;23.80;99.90
11221;DHT22;8517;53.546;10.104;2023-05-21T10:03:55;23.80;99.90
11221;DHT22;8517;53.546;10.104;2023-05-21T10:06:26;23.90;99.90
11221;DHT22;8517;53.546;10.104;2023-05-21T10:08:54;23.90;99.90
11221;DHT22;8517;53.546;10.104;2023-05-21T10:11:23;24.20;99.90
11221;DHT22;8517;53.546;10.104;2023-05-21T10:13:56;24.20;99.90
11221;DHT22;8517;53.546;10.104;2023-05-21T10:16:23;24.30;99.90
11221;DHT22;8517;53.546;10.104;2023-05-21T10:18:50;24.40;99.90
11221;DHT22;8517;53.546;10.104;2023-05-21T10:21:20;24.50;99.90
11221;DHT22;8517;53.546;10.104;2023-05-21T10:23:49;24.60;99.90
11221;DHT22;8517;53.546;10.104;2023-05-21T10:26:18;24.80;99.90
11221;DHT22;8517;53.546;10.104;2023-05-21T10:28:46;24.90;99.90
11221;DHT22;8517;53.546;10.104;2023-05-21T10:31:13;25.00;99.90
11221;DHT22;8517;53.546;10.104;2023-05-21T10:33:40;25.20;99.90
11221;DHT22;8517;53.546;10.104;2023-05-21T10:36:08;25.30;99.90
11221;DHT22;8517;53.546;10.104;2023-05-21T10:38:36;25.50;99.90
11221;DHT22;8517;53.546;10.104;2023-05-21T10:41:07;25.60;99.90
11221;DHT22;8517;53.546;10.104;2023-05-21T10:43:45;25.70;99.90
11221;DHT22;8517;53.546;10.104;2023-05-21T10:46:40;25.80;99.90
11221;DHT22;8517;53.546;10.104;2023-05-21T10:49:34;25.80;99.90
11221;DHT22;8517;53.546;10.104;2023-05-21T10:52:11;25.90;99.90
11221;DHT22;8517;53.546;10.104;2023-05-21T10:55:06;26.00;99.90
11221;DHT22;8517;53.546;10.104;2023-05-21T10:58:14;26.00;99.90
11221;DHT22;8517;53.546;10.104;2023-05-21T11:00:46;26.10;99.90
11221;DHT22;8517;53.546;10.104;2023-05-21T11:03:13;26.10;99.90
11221;DHT22;8517;53.546;10.104;2023-05-21T11:05:51;26.20;99.90
11221;DHT22;8517;53.546;10.104;2023-05-21T11:08:21;26.30;99.90
11221;DHT22;8517;53.546;10.104;2023-05-21T11:10:52;26.30;99.90
11221;DHT22;8517;53.546;10.104;2023-05-21T11:13:20;26.40;99.90
11221;DHT22;8517;53.546;10.104;2023-05-21T11:16:06;26.40;99.90
11221;DHT22;8517;53.546;10.104;2023-05-21T11:18:59;26.50;99.90
11221;DHT22;8517;53.546;10.104;2023-05-21T11:21:29;26.50;99.90
11221;DHT22;8517;53.546;10.104;2023-05-21T11:24:00;26.50;99.90
11221;DHT22;8517;53.546;10.104;2023-05-21T11:26:29;26.60;99.90
11221;DHT22;8517;53.546;10.104;2023-05-21T11:29:07;26.60;99.90
11221;DHT22;8517;53.546;10.104;2023-05-21T11:31:35;26.60;99.90
11221;DHT22;8517;53.546;10.104;2023-05-21T11:34:13;26.70;99.90
11221;DHT22;8517;53.546;10.104;2023-05-21T11:36:42;26.70;99.90
11221;DHT22;8517;53.546;10.104;2023-05-21T11:39:10;26.80;99.90
11221;DHT22;8517;53.546;10.104;2023-05-21T11:41:50;26.80;99.90
11221;DHT22;8517;53.546;10.104;2023-05-21T11:44:21;26.80;99.90
11221;DHT22;8517;53.546;10.104;2023-05-21T11:47:03;26.90;99.90
11221;DHT22;8517;53.546;10.104;2023-05-21T11:49:30;26.90;99.90
11221;DHT22;8517;53.546;10.104;2023-05-21T11:51:59;26.90;99.90
11221;DHT22;8517;53.546;10.104;2023-05-21T11:54:26;27.00;99.90
11221;DHT22;8517;53.546;10.104;2023-05-21T11:56:54;27.00;99.90
11221;DHT22;8517;53.546;10.104;2023-05-21T11:59:22;26.90;99.90
11221;DHT22;8517;53.546;10.104;2023-05-21T12:01:49;26.90;99.90
11221;DHT22;8517;53.546;10.104;2023-05-21T12:04:16;26.90;99.90
11221;DHT22;8517;53.546;10.104;2023-05-21T12:06:43;26.90;99.90
11221;DHT22;8517;53.546;10.104;2023-05-21T12:09:09;26.90;99.90
11221;DHT22;8517;53.546;10.104;2023-05-21T12:11:37;26.90;99.90
11221;DHT22;8517;53.546;10.104;2023-05-21T12:14:06;26.80;99.90
11221;DHT22;8517;53.546;10.104;2023-05-21T12:16:36;26.90;99.90
11221;DHT22;8517;53.546;10.104;2023-05-21T12:19:03;26.80;99.90
11221;DHT22;8517;53.546;10.104;2023-05-21T12:21:30;26.80;99.90
11221;DHT22;8517;53.546;10.104;2023-05-21T12:23:57;26.80;99.90
11221;DHT22;8517;53.546;10.104;2023-05-21T12:26:24;26.90;99.90
11221;DHT22;8517;53.546;10.104;2023-05-21T12:28:52;26.90;99.90
11221;DHT22;8517;53.546;10.104;2023-05-21T12:31:19;26.90;99.90
11221;DHT22;8517;53.546;10.104;2023-05-21T12:33:48;27.00;99.90
11221;DHT22;8517;53.546;10.104;2023-05-21T12:36:21;27.00;99.90
11221;DHT22;8517;53.546;10.104;2023-05-21T12:38:49;27.00;99.90
11221;DHT22;8517;53.546;10.104;2023-05-21T12:41:16;27.00;99.90
11221;DHT22;8517;53.546;10.104;2023-05-21T12:43:43;27.00;99.90
11221;DHT22;8517;53.546;10.104;2023-05-21T12:46:27;27.00;99.90
11221;DHT22;8517;53.546;10.104;2023-05-21T12:48:55;27.00;99.90
11221;DHT22;8517;53.546;10.104;2023-05-21T12:51:22;27.00;99.90
11221;DHT22;8517;53.546;10.104;2023-05-21T12:53:50;27.00;99.90
11221;DHT22;8517;53.546;10.104;2023-05-21T12:56:16;27.00;99.90
11221;DHT22;8517;53.546;10.104;2023-05-21T12:58:49;27.10;99.90
11221;DHT22;8517;53.546;10.104;2023-05-21T13:01:15;27.10;99.90
11221;DHT22;8517;53.546;10.104;2023-05-21T13:03:44;27.10;99.90
11221;DHT22;8517;53.546;10.104;2023-05-21T13:06:13;27.10;99.90
11221;DHT22;8517;53.546;10.104;2023-05-21T13:08:40;27.10;99.90
11221;DHT22;8517;53.546;10.104;2023-05-21T13:11:06;27.10;99.90
11221;DHT22;8517;53.546;10.104;2023-05-21T13:13:33;27.10;99.90
11221;DHT22;8517;53.546;10.104;2023-05-21T13:16:00;27.20;99.90
11221;DHT22;8517;53.546;10.104;2023-05-21T13:18:28;27.10;99.90
11221;DHT22;8517;53.546;10.104;2023-05-21T13:20:55;27.20;99.90
11221;DHT22;8517;53.546;10.104;2023-05-21T13:23:23;27.20;99.90
11221;DHT22;8517;53.546;10.104;2023-05-21T13:25:50;27.20;99.90
11221;DHT22;8517;53.546;10.104;2023-05-21T13:28:20;27.20;99.90
11221;DHT22;8517;53.546;10.104;2023-05-21T13:30:48;27.20;99.90
11221;DHT22;8517;53.546;10.104;2023-05-21T13:33:17;27.20;99.90
11221;DHT22;8517;53.546;10.104;2023-05-21T13:35:44;27.20;99.90
11221;DHT22;8517;53.546;10.104;2023-05-21T13:38:15;27.20;99.90
11221;DHT22;8517;53.546;10.104;2023-05-21T13:40:43;27.20;99.90
11221;DHT22;8517;53.546;10.104;2023-05-21T13:43:10;27.20;99.90
11221;DHT22;8517;53.546;10.104;2023-05-21T13:45:37;27.30;99.90
11221;DHT22;8517;53.546;10.104;2023-05-21T13:48:04;27.30;99.90
11221;DHT22;8517;53.546;10.104;2023-05-21T13:50:31;27.30;99.90
11221;DHT22;8517;53.546;10.104;2023-05-21T13:52:58;27.40;99.90
11221;DHT22;8517;53.546;10.104;2023-05-21T13:55:24;27.40;99.90
11221;DHT22;8517;53.546;10.104;2023-05-21T13:57:53;27.40;99.90
11221;DHT22;8517;53.546;10.104;2023-05-21T14:00:19;27.50;99.90
11221;DHT22;8517;53.546;10.104;2023-05-21T14:02:46;27.50;99.90
11221;DHT22;8517;53.546;10.104;2023-05-21T14:05:14;27.50;99.90
11221;DHT22;8517;53.546;10.104;2023-05-21T14:07:41;27.50;99.90
11221;DHT22;8517;53.546;10.104;2023-05-21T14:10:08;27.60;99.90
11221;DHT22;8517;53.546;10.104;2023-05-21T14:12:35;27.60;99.90
11221;DHT22;8517;53.546;10.104;2023-05-21T14:15:05;27.60;99.90
11221;DHT22;8517;53.546;10.104;2023-05-21T14:17:32;27.60;99.90
11221;DHT22;8517;53.546;10.104;2023-05-21T14:19:58;27.60;99.90
11221;DHT22;8517;53.546;10.104;2023-05-21T14:22:25;27.60;99.90
11221;DHT22;8517;53.546;10.104;2023-05-21T14:24:52;27.50;99.90
11221;DHT22;8517;53.546;10.104;2023-05-21T14:27:19;27.50;99.90
11221;DHT22;8517;53.546;10.104;2023-05-21T14:29:46;27.40;99.90
11221;DHT22;8517;53.546;10.104;2023-05-21T14:32:14;27.40;99.90
11221;DHT22;8517;53.546;10.104;2023-05-21T14:34:41;27.40;99.90
11221;DHT22;8517;53.546;10.104;2023-05-21T14:37:08;27.30;99.90
11221;DHT22;8517;53.546;10.104;2023-05-21T14:39:35;27.30;99.90
11221;DHT22;8517;53.546;10.104;2023-05-21T14:42:02;27.20;99.90
11221;DHT22;8517;53.546;10.104;2023-05-21T14:44:29;27.30;99.90
11221;DHT22;8517;53.546;10.104;2023-05-21T14:46:56;27.20;99.90
11221;DHT22;8517;53.546;10.104;2023-05-21T14:49:24;27.20;99.90
11221;DHT22;8517;53.546;10.104;2023-05-21T14:51:51;27.20;99.90
11221;DHT22;8517;53.546;10.104;2023-05-21T14:54:18;27.20;99.90
11221;DHT22;8517;53.546;10.104;2023-05-21T14:56:45;27.10;99.90
11221;DHT22;8517;53.546;10.104;2023-05-21T14:59:11;27.10;99.90
11221;DHT22;8517;53.546;10.104;2023-05-21T15:01:38;27.10;99.90
11221;DHT22;8517;53.546;10.104;2023-05-21T15:04:05;27.10;99.90
11221;DHT22;8517;53.546;10.104;2023-05-21T15:06:33;27.10;99.90
11221;DHT22;8517;53.546;10.104;2023-05-21T15:09:00;27.10;99.90
11221;DHT22;8517;53.546;10.104;2023-05-21T15:11:27;27.00;99.90
11221;DHT22;8517;53.546;10.104;2023-05-21T15:13:54;27.00;99.90
11221;DHT22;8517;53.546;10.104;2023-05-21T15:16:20;27.00;99.90
11221;DHT22;8517;53.546;10.104;2023-05-21T15:18:47;26.90;99.90
11221;DHT22;8517;53.546;10.104;2023-05-21T15:21:14;26.90;99.90
11221;DHT22;8517;53.546;10.104;2023-05-21T15:23:42;26.90;99.90
11221;DHT22;8517;53.546;10.104;2023-05-21T15:26:09;26.90;99.90
11221;DHT22;8517;53.546;10.104;2023-05-21T15:28:36;26.90;99.90
11221;DHT22;8517;53.546;10.104;2023-05-21T15:31:03;26.90;99.90
11221;DHT22;8517;53.546;10.104;2023-05-21T15:33:29;26.90;99.90
11221;DHT22;8517;53.546;10.104;2023-05-21T15:35:56;26.90;99.90
11221;DHT22;8517;53.546;10.104;2023-05-21T15:38:23;27.00;99.90